Terminal Aerodrome Forecast
Issued by NWS Wichita, KS

Home | Current Version | Previous Version | Text Only | Print | Product List | Glossary On
Versions: 1 2 3 4 5 6 7 8 9 10 11 12 13 14 15 16 17 18 19 20 21 22 23 24 25 26 27 28
650
FTUS43 KICT 211143
TAFICT
TAF
KICT 211143Z 2112/2212 01017G22KT P6SM BKN100
     FM211800 02017KT P6SM SCT015 OVC100
     FM212100 03017KT P6SM BKN013
     FM220000 04013KT 5SM -SN OVC012
     FM220300 05009KT 4SM -FZRAPL OVC008=

USA.gov is the U.S. government's official web portal to all federal, state and local government web resources and services.